• Join FlightAware (Why Join?)
  • Login
  • US Flag 
07:37AM EDT


 

Airport Tracker/Info


-or-


 

Live Flight TrackerFlight Track Log ✈ PDT4309 ✈ 10-Jun-2013 ✈ KPGV - KCLT

Flight Track Log - Related Links

Times and Time Zones

All times are in EDT time to prevent confusion due to time zone crossing. See the PDT4309 flight status page for this flight to view local times or setup timezone preferences in your user account.

Time Position Orientation Groundspeed Altitude Reporting Facility
EDT Latitude Longitude Course Direction KTS MPH feet Rate Location/Type
08:10PM 35.6386 -77.4578 287° West 230 265 3,400  Level Washington Center
08:10PM 35.6589 -77.5067 297° West 190 219 4,800 1,380 Climbing Washington Center
08:11PM 35.6739 -77.6383 292° West  Level FlightAware Approximate
08:12PM 35.6858 -77.7009 280° West  Level FlightAware Approximate
08:12PM 35.6872 -77.5561 305° West 176 203 6,200  Level Washington Center
08:13PM 35.6959 -77.7711 280° West  Level FlightAware Approximate
08:13PM 35.7072 -77.6078 296° West 171 197 7,500  Level Washington Center
08:13PM 35.7272 -77.6594 296° West 165 190 8,800 1,260 Climbing Washington Center
08:14PM 35.7061 -77.8409 287° West  Level FlightAware Approximate
08:14PM 35.7450 -77.7111 293° West 165 190 10,000  Level Washington Center
08:15PM 35.7608 -77.7653 290° West 165 190 10,900 840 Climbing Washington Center
08:17PM 35.7764 -77.8219 289° West 171 197 11,700 540 Climbing Washington Center
08:17PM 35.7900 -77.8839 285° West 176 203 12,000 180 Climbing Washington Center
08:18PM 35.7875 -77.9042 261° West 195 224 12,000  Level Washington Center
08:18PM 35.7908 -77.9428 276° West 208 239 12,000  Level Washington Center
08:19PM 35.8000 -78.0094 280° West 214 246 12,000  Level Washington Center
08:20PM 35.8039 -78.0250 287° West 208 239 12,000  Level Washington Center
08:20PM 35.8069 -78.0764 274° West 214 246 12,000  Level Washington Center
08:20PM 35.8106 -78.0994 281° West 218 251 12,000  Level Washington Center
08:21PM 35.8136 -78.1533 274° West 214 246 12,000  Level Washington Center
08:22PM 35.8175 -78.1714 285° West 218 251 12,000  Level Washington Center
08:22PM 35.8164 -78.2228 268° West 215 247 12,000  Level Washington Center
08:22PM 35.8242 -78.2433 295° West 218 251 12,000  Level Washington Center
08:23PM 35.8250 -78.2972 271° West 216 249 12,000  Level Washington Center
08:23PM 35.8308 -78.3178 289° West 218 251 12,000  Level Washington Center
08:24PM 35.8278 -78.3664 266° West 215 247 12,000  Level Washington Center
08:24PM 35.8292 -78.3922 274° West 218 251 12,000  Level Washington Center
08:26PM 35.8275 -78.4614 268° West 213 245 12,000 -120 Level Washington Center
08:26PM 35.8244 -78.5047 265° West 203 234 11,800 -660 Descending Washington Center
08:26PM 35.8278 -78.5331 278° West 213 245 11,400 -1,260 Descending Washington Center
08:27PM 35.8225 -78.5789 262° West 215 247 10,600 -1,320 Descending Washington Center
08:28PM 35.8261 -78.6072 279° West 213 245 10,100 -600 Descending Washington Center
08:28PM 35.8228 -78.6558 265° West 197 227 10,000 -60 Descending Washington Center
08:29PM 35.8231 -78.7225 270° West 201 231 10,000  Level Washington Center
08:30PM 35.8189 -78.7964 266° West 212 244 10,000  Level Washington Center
08:31PM 35.8192 -78.8683 270° West 215 247 10,000  Level Washington Center
08:32PM 35.8214 -78.9400 272° West 211 243 10,000  Level Washington Center
08:33PM 35.8192 -79.0169 268° West 209 241 10,000  Level Washington Center
08:34PM 35.8172 -79.0833 268° West 209 241 10,000  Level Washington Center
08:35PM 35.8172 -79.1525 270° West 209 241 10,000 -240 Level Washington Center
08:37PM 35.8171 -79.2397 270° West  Level FlightAware Approximate
08:44PM 35.8004 -79.7279 270° West  Level FlightAware Approximate
08:45PM 35.8005 -79.7977 270° West  Level FlightAware Approximate
08:46PM 35.8006 -79.8674 270° West  Level FlightAware Approximate
08:47PM 35.8007 -79.9372 270° West  Level FlightAware Approximate
08:47PM 35.8033 -80.0419 270° West 229 264 7,200  Level Atlanta Center
08:48PM 35.8007 -80.0069 270° West  Level FlightAware Approximate
08:48PM 35.7869 -80.1144 254° West 239 275 6,700  Level Atlanta Center
08:49PM 35.8007 -80.0767 270° West  Level FlightAware Approximate
08:49PM 35.7558 -80.1825 241° Southwest 239 275 6,200  Level Atlanta Center
08:50PM 35.8006 -80.1464 270° West  Level FlightAware Approximate
08:50PM 35.7139 -80.2483 232° Southwest 238 274 5,900  Level Atlanta Center
08:51PM 35.8005 -80.2162 270° West  Level FlightAware Approximate
08:51PM 35.6697 -80.3014 224° Southwest 227 261 5,900  Level Atlanta Center
08:52PM 35.8004 -80.2859 270° West  Level FlightAware Approximate
08:52PM 35.6319 -80.3619 233° Southwest 223 257 6,000  Level Atlanta Center
08:53PM 35.8002 -80.3557 270° West  Level FlightAware Approximate
08:53PM 35.5878 -80.4228 228° Southwest 224 258 6,000  Level Atlanta Center
08:54PM 35.5456 -80.4808 228° Southwest 227 261 6,000 -60 Level Atlanta Center
08:55PM 35.5058 -80.5436 232° Southwest 229 264 5,900 -60 Descending Atlanta Center
08:56PM 35.4636 -80.6017 228° Southwest 231 266 5,900  Level Atlanta Center
08:57PM 35.4214 -80.6594 228° Southwest 230 265 5,900 -480 Level Atlanta Center
08:58PM 35.3731 -80.7250 228° Southwest 237 273 5,000 -1,080 Descending Atlanta Center
08:59PM 35.3350 -80.7800 230° Southwest 221 254 3,800 -1,080 Descending Atlanta Center
09:00PM 35.3008 -80.8297 230° Southwest 175 201 2,900 -900 Descending Atlanta Center